sensor_id;sensor_type;location;lat;lon;timestamp;P1;durP1;ratioP1;P2;durP2;ratioP2
36061;SDS011;22123;52.412;20.970;2023-02-11T00:00:55;12.73;;;6.70;;
36061;SDS011;22123;52.412;20.970;2023-02-11T00:03:21;19.30;;;6.35;;
36061;SDS011;22123;52.412;20.970;2023-02-11T00:05:57;15.55;;;6.32;;
36061;SDS011;22123;52.412;20.970;2023-02-11T00:08:28;10.48;;;5.60;;
36061;SDS011;22123;52.412;20.970;2023-02-11T00:10:56;16.58;;;6.45;;
36061;SDS011;22123;52.412;20.970;2023-02-11T00:13:23;14.75;;;7.50;;
36061;SDS011;22123;52.412;20.970;2023-02-11T00:15:49;15.02;;;6.05;;
36061;SDS011;22123;52.412;20.970;2023-02-11T00:18:15;15.05;;;7.68;;
36061;SDS011;22123;52.412;20.970;2023-02-11T00:20:41;15.75;;;5.30;;
36061;SDS011;22123;52.412;20.970;2023-02-11T00:23:08;13.60;;;6.13;;
36061;SDS011;22123;52.412;20.970;2023-02-11T00:25:38;17.83;;;6.07;;
36061;SDS011;22123;52.412;20.970;2023-02-11T00:28:07;15.02;;;5.90;;
36061;SDS011;22123;52.412;20.970;2023-02-11T00:30:34;10.65;;;4.63;;
36061;SDS011;22123;52.412;20.970;2023-02-11T00:33:00;16.92;;;6.10;;
36061;SDS011;22123;52.412;20.970;2023-02-11T00:35:26;10.85;;;5.70;;
36061;SDS011;22123;52.412;20.970;2023-02-11T00:37:52;13.30;;;6.20;;
36061;SDS011;22123;52.412;20.970;2023-02-11T00:40:19;15.25;;;5.00;;
36061;SDS011;22123;52.412;20.970;2023-02-11T00:42:45;16.77;;;5.72;;
36061;SDS011;22123;52.412;20.970;2023-02-11T00:45:11;11.55;;;5.03;;
36061;SDS011;22123;52.412;20.970;2023-02-11T00:47:37;12.60;;;4.68;;
36061;SDS011;22123;52.412;20.970;2023-02-11T00:50:03;14.50;;;5.18;;
36061;SDS011;22123;52.412;20.970;2023-02-11T00:52:30;9.85;;;5.55;;
36061;SDS011;22123;52.412;20.970;2023-02-11T00:54:56;9.07;;;3.75;;
36061;SDS011;22123;52.412;20.970;2023-02-11T00:57:23;15.00;;;5.93;;
36061;SDS011;22123;52.412;20.970;2023-02-11T00:59:49;8.90;;;3.90;;
36061;SDS011;22123;52.412;20.970;2023-02-11T01:02:15;9.80;;;4.68;;
36061;SDS011;22123;52.412;20.970;2023-02-11T01:04:42;15.25;;;5.40;;
36061;SDS011;22123;52.412;20.970;2023-02-11T01:07:08;9.68;;;4.55;;
36061;SDS011;22123;52.412;20.970;2023-02-11T01:09:36;10.30;;;4.22;;
36061;SDS011;22123;52.412;20.970;2023-02-11T01:12:02;17.20;;;5.65;;
36061;SDS011;22123;52.412;20.970;2023-02-11T01:14:31;7.70;;;3.75;;
36061;SDS011;22123;52.412;20.970;2023-02-11T01:16:56;10.38;;;4.55;;
36061;SDS011;22123;52.412;20.970;2023-02-11T01:19:22;11.95;;;4.97;;
36061;SDS011;22123;52.412;20.970;2023-02-11T01:21:48;11.68;;;5.80;;
36061;SDS011;22123;52.412;20.970;2023-02-11T01:24:14;11.23;;;4.10;;
36061;SDS011;22123;52.412;20.970;2023-02-11T01:26:40;11.52;;;4.72;;
36061;SDS011;22123;52.412;20.970;2023-02-11T01:29:06;14.25;;;5.25;;
36061;SDS011;22123;52.412;20.970;2023-02-11T01:31:32;18.20;;;5.80;;
36061;SDS011;22123;52.412;20.970;2023-02-11T01:33:58;12.38;;;4.55;;
36061;SDS011;22123;52.412;20.970;2023-02-11T01:36:23;27.23;;;6.75;;
36061;SDS011;22123;52.412;20.970;2023-02-11T01:38:49;13.48;;;4.80;;
36061;SDS011;22123;52.412;20.970;2023-02-11T01:41:15;6.95;;;3.30;;
36061;SDS011;22123;52.412;20.970;2023-02-11T01:43:46;15.80;;;4.68;;
36061;SDS011;22123;52.412;20.970;2023-02-11T01:51:44;17.90;;;6.20;;
36061;SDS011;22123;52.412;20.970;2023-02-11T01:54:16;17.95;;;5.55;;
36061;SDS011;22123;52.412;20.970;2023-02-11T01:59:16;14.23;;;3.72;;
36061;SDS011;22123;52.412;20.970;2023-02-11T02:01:49;9.35;;;3.40;;
36061;SDS011;22123;52.412;20.970;2023-02-11T02:04:21;15.88;;;6.28;;
36061;SDS011;22123;52.412;20.970;2023-02-11T02:06:50;9.75;;;4.85;;
36061;SDS011;22123;52.412;20.970;2023-02-11T02:09:24;13.50;;;4.88;;
36061;SDS011;22123;52.412;20.970;2023-02-11T02:11:54;13.32;;;3.55;;
36061;SDS011;22123;52.412;20.970;2023-02-11T02:14:20;6.78;;;4.07;;
36061;SDS011;22123;52.412;20.970;2023-02-11T02:16:46;11.10;;;4.38;;
36061;SDS011;22123;52.412;20.970;2023-02-11T02:36:14;16.30;;;4.25;;
36061;SDS011;22123;52.412;20.970;2023-02-11T02:38:50;7.57;;;3.55;;
36061;SDS011;22123;52.412;20.970;2023-02-11T02:41:21;7.82;;;3.72;;
36061;SDS011;22123;52.412;20.970;2023-02-11T02:43:51;8.80;;;3.95;;
36061;SDS011;22123;52.412;20.970;2023-02-11T02:46:22;7.93;;;4.03;;
36061;SDS011;22123;52.412;20.970;2023-02-11T02:48:54;9.50;;;3.88;;
36061;SDS011;22123;52.412;20.970;2023-02-11T03:02:31;10.38;;;4.15;;
36061;SDS011;22123;52.412;20.970;2023-02-11T03:08:06;7.35;;;3.53;;
36061;SDS011;22123;52.412;20.970;2023-02-11T03:10:40;13.70;;;4.68;;
36061;SDS011;22123;52.412;20.970;2023-02-11T03:13:09;6.22;;;3.00;;
36061;SDS011;22123;52.412;20.970;2023-02-11T03:15:45;9.95;;;4.13;;
36061;SDS011;22123;52.412;20.970;2023-02-11T03:18:16;6.20;;;3.90;;
36061;SDS011;22123;52.412;20.970;2023-02-11T03:20:46;8.32;;;3.35;;
36061;SDS011;22123;52.412;20.970;2023-02-11T03:23:17;12.48;;;4.05;;
36061;SDS011;22123;52.412;20.970;2023-02-11T03:31:34;8.98;;;4.47;;
36061;SDS011;22123;52.412;20.970;2023-02-11T03:34:03;10.98;;;3.78;;
36061;SDS011;22123;52.412;20.970;2023-02-11T03:36:36;9.27;;;3.97;;
36061;SDS011;22123;52.412;20.970;2023-02-11T03:39:06;13.70;;;5.10;;
36061;SDS011;22123;52.412;20.970;2023-02-11T03:41:35;9.63;;;3.72;;
36061;SDS011;22123;52.412;20.970;2023-02-11T03:44:02;13.45;;;4.65;;
36061;SDS011;22123;52.412;20.970;2023-02-11T03:46:36;8.25;;;3.80;;
36061;SDS011;22123;52.412;20.970;2023-02-11T03:49:08;5.93;;;3.13;;
36061;SDS011;22123;52.412;20.970;2023-02-11T03:51:38;8.93;;;3.72;;
36061;SDS011;22123;52.412;20.970;2023-02-11T03:54:08;10.63;;;4.43;;
36061;SDS011;22123;52.412;20.970;2023-02-11T03:56:40;13.52;;;4.90;;
36061;SDS011;22123;52.412;20.970;2023-02-11T03:59:11;6.85;;;3.45;;
36061;SDS011;22123;52.412;20.970;2023-02-11T04:01:37;11.82;;;4.65;;
36061;SDS011;22123;52.412;20.970;2023-02-11T04:04:02;11.10;;;4.03;;
36061;SDS011;22123;52.412;20.970;2023-02-11T04:06:29;19.48;;;4.38;;
36061;SDS011;22123;52.412;20.970;2023-02-11T04:08:54;12.88;;;3.33;;
36061;SDS011;22123;52.412;20.970;2023-02-11T04:11:20;10.55;;;3.63;;
36061;SDS011;22123;52.412;20.970;2023-02-11T04:13:46;9.57;;;4.55;;
36061;SDS011;22123;52.412;20.970;2023-02-11T04:16:12;7.82;;;2.95;;
36061;SDS011;22123;52.412;20.970;2023-02-11T04:18:38;6.03;;;3.13;;
36061;SDS011;22123;52.412;20.970;2023-02-11T04:21:04;9.80;;;3.72;;
36061;SDS011;22123;52.412;20.970;2023-02-11T04:23:30;12.77;;;4.93;;
36061;SDS011;22123;52.412;20.970;2023-02-11T04:25:56;8.75;;;4.05;;
36061;SDS011;22123;52.412;20.970;2023-02-11T04:28:22;10.95;;;4.68;;
36061;SDS011;22123;52.412;20.970;2023-02-11T04:30:48;10.27;;;3.90;;
36061;SDS011;22123;52.412;20.970;2023-02-11T04:33:15;8.07;;;3.72;;
36061;SDS011;22123;52.412;20.970;2023-02-11T04:35:41;17.45;;;5.63;;
36061;SDS011;22123;52.412;20.970;2023-02-11T04:38:07;7.00;;;4.45;;
36061;SDS011;22123;52.412;20.970;2023-02-11T04:40:33;10.93;;;4.88;;
36061;SDS011;22123;52.412;20.970;2023-02-11T04:42:59;12.93;;;6.25;;
36061;SDS011;22123;52.412;20.970;2023-02-11T04:45:25;11.93;;;5.25;;
36061;SDS011;22123;52.412;20.970;2023-02-11T04:47:51;12.43;;;5.50;;
36061;SDS011;22123;52.412;20.970;2023-02-11T04:50:16;7.60;;;4.30;;
36061;SDS011;22123;52.412;20.970;2023-02-11T04:52:42;11.75;;;5.25;;
36061;SDS011;22123;52.412;20.970;2023-02-11T04:55:08;12.98;;;5.97;;
36061;SDS011;22123;52.412;20.970;2023-02-11T04:57:34;13.35;;;5.05;;
36061;SDS011;22123;52.412;20.970;2023-02-11T05:00:00;10.57;;;5.07;;
36061;SDS011;22123;52.412;20.970;2023-02-11T05:02:26;6.70;;;3.78;;
36061;SDS011;22123;52.412;20.970;2023-02-11T05:04:52;7.95;;;4.32;;
36061;SDS011;22123;52.412;20.970;2023-02-11T05:07:18;12.25;;;5.43;;
36061;SDS011;22123;52.412;20.970;2023-02-11T05:09:44;14.63;;;6.53;;
36061;SDS011;22123;52.412;20.970;2023-02-11T05:12:10;13.48;;;5.43;;
36061;SDS011;22123;52.412;20.970;2023-02-11T05:14:35;14.95;;;6.00;;
36061;SDS011;22123;52.412;20.970;2023-02-11T05:17:01;12.23;;;4.78;;
36061;SDS011;22123;52.412;20.970;2023-02-11T05:19:27;10.30;;;5.07;;
36061;SDS011;22123;52.412;20.970;2023-02-11T05:21:53;14.23;;;6.00;;
36061;SDS011;22123;52.412;20.970;2023-02-11T05:24:19;14.15;;;6.38;;
36061;SDS011;22123;52.412;20.970;2023-02-11T05:26:51;19.63;;;7.20;;
36061;SDS011;22123;52.412;20.970;2023-02-11T05:29:17;14.32;;;5.90;;
36061;SDS011;22123;52.412;20.970;2023-02-11T05:31:43;17.20;;;5.53;;
36061;SDS011;22123;52.412;20.970;2023-02-11T05:34:09;16.95;;;7.45;;
36061;SDS011;22123;52.412;20.970;2023-02-11T05:36:34;18.77;;;5.63;;
36061;SDS011;22123;52.412;20.970;2023-02-11T05:39:00;16.13;;;5.47;;
36061;SDS011;22123;52.412;20.970;2023-02-11T05:41:26;11.82;;;4.22;;
36061;SDS011;22123;52.412;20.970;2023-02-11T05:43:52;16.42;;;4.40;;
36061;SDS011;22123;52.412;20.970;2023-02-11T05:46:18;10.80;;;4.40;;
36061;SDS011;22123;52.412;20.970;2023-02-11T05:48:44;18.85;;;6.05;;
36061;SDS011;22123;52.412;20.970;2023-02-11T05:51:10;15.65;;;5.80;;
36061;SDS011;22123;52.412;20.970;2023-02-11T05:53:36;16.30;;;5.60;;
36061;SDS011;22123;52.412;20.970;2023-02-11T05:56:02;8.45;;;3.97;;
36061;SDS011;22123;52.412;20.970;2023-02-11T05:58:28;14.15;;;6.40;;
36061;SDS011;22123;52.412;20.970;2023-02-11T06:00:53;13.23;;;5.40;;
36061;SDS011;22123;52.412;20.970;2023-02-11T06:03:20;13.88;;;6.00;;
36061;SDS011;22123;52.412;20.970;2023-02-11T06:05:46;19.17;;;7.43;;
36061;SDS011;22123;52.412;20.970;2023-02-11T06:08:12;18.88;;;6.22;;
36061;SDS011;22123;52.412;20.970;2023-02-11T06:10:38;20.13;;;5.75;;
36061;SDS011;22123;52.412;20.970;2023-02-11T06:13:03;16.95;;;7.03;;
36061;SDS011;22123;52.412;20.970;2023-02-11T06:15:29;13.65;;;4.78;;
36061;SDS011;22123;52.412;20.970;2023-02-11T06:17:55;21.95;;;6.22;;
36061;SDS011;22123;52.412;20.970;2023-02-11T06:20:21;12.63;;;4.95;;
36061;SDS011;22123;52.412;20.970;2023-02-11T06:22:47;18.20;;;5.78;;
36061;SDS011;22123;52.412;20.970;2023-02-11T06:25:13;18.90;;;5.75;;
36061;SDS011;22123;52.412;20.970;2023-02-11T06:27:39;14.65;;;5.97;;
36061;SDS011;22123;52.412;20.970;2023-02-11T06:30:05;22.83;;;7.22;;
36061;SDS011;22123;52.412;20.970;2023-02-11T06:32:32;22.67;;;8.63;;
36061;SDS011;22123;52.412;20.970;2023-02-11T06:34:58;11.48;;;5.40;;
36061;SDS011;22123;52.412;20.970;2023-02-11T06:37:23;14.90;;;6.20;;
36061;SDS011;22123;52.412;20.970;2023-02-11T06:39:49;18.80;;;7.60;;
36061;SDS011;22123;52.412;20.970;2023-02-11T06:42:15;14.27;;;5.90;;
36061;SDS011;22123;52.412;20.970;2023-02-11T06:44:41;15.93;;;7.43;;
36061;SDS011;22123;52.412;20.970;2023-02-11T06:47:07;21.92;;;7.63;;
36061;SDS011;22123;52.412;20.970;2023-02-11T06:49:33;14.85;;;5.68;;
36061;SDS011;22123;52.412;20.970;2023-02-11T06:52:00;21.42;;;7.35;;
36061;SDS011;22123;52.412;20.970;2023-02-11T06:54:26;13.18;;;6.07;;
36061;SDS011;22123;52.412;20.970;2023-02-11T06:56:52;15.00;;;5.55;;
36061;SDS011;22123;52.412;20.970;2023-02-11T06:59:18;21.20;;;7.25;;
36061;SDS011;22123;52.412;20.970;2023-02-11T07:01:44;15.90;;;6.57;;
36061;SDS011;22123;52.412;20.970;2023-02-11T07:04:10;24.60;;;9.35;;
36061;SDS011;22123;52.412;20.970;2023-02-11T07:06:36;14.98;;;7.60;;
36061;SDS011;22123;52.412;20.970;2023-02-11T07:09:03;13.13;;;5.95;;
36061;SDS011;22123;52.412;20.970;2023-02-11T07:11:29;10.68;;;5.40;;
36061;SDS011;22123;52.412;20.970;2023-02-11T07:13:59;18.90;;;8.02;;
36061;SDS011;22123;52.412;20.970;2023-02-11T07:16:29;18.27;;;6.85;;
36061;SDS011;22123;52.412;20.970;2023-02-11T07:18:56;20.92;;;8.85;;
36061;SDS011;22123;52.412;20.970;2023-02-11T07:21:22;18.27;;;6.78;;
36061;SDS011;22123;52.412;20.970;2023-02-11T07:23:48;13.43;;;6.53;;
36061;SDS011;22123;52.412;20.970;2023-02-11T07:26:15;24.85;;;8.73;;
36061;SDS011;22123;52.412;20.970;2023-02-11T07:28:43;21.30;;;8.25;;
36061;SDS011;22123;52.412;20.970;2023-02-11T07:31:16;18.65;;;7.25;;
36061;SDS011;22123;52.412;20.970;2023-02-11T07:33:44;20.55;;;6.68;;
36061;SDS011;22123;52.412;20.970;2023-02-11T07:36:10;20.90;;;7.68;;
36061;SDS011;22123;52.412;20.970;2023-02-11T07:38:37;19.58;;;7.70;;
36061;SDS011;22123;52.412;20.970;2023-02-11T07:41:08;19.85;;;8.00;;
36061;SDS011;22123;52.412;20.970;2023-02-11T07:43:35;21.60;;;8.68;;
36061;SDS011;22123;52.412;20.970;2023-02-11T07:46:03;18.75;;;9.00;;
36061;SDS011;22123;52.412;20.970;2023-02-11T07:48:33;15.93;;;6.30;;
36061;SDS011;22123;52.412;20.970;2023-02-11T07:51:10;21.38;;;9.05;;
36061;SDS011;22123;52.412;20.970;2023-02-11T07:53:41;24.00;;;7.95;;
36061;SDS011;22123;52.412;20.970;2023-02-11T07:56:08;14.73;;;7.05;;
36061;SDS011;22123;52.412;20.970;2023-02-11T07:58:35;20.67;;;7.88;;
36061;SDS011;22123;52.412;20.970;2023-02-11T08:01:02;17.15;;;6.78;;
36061;SDS011;22123;52.412;20.970;2023-02-11T08:03:32;23.35;;;8.35;;
36061;SDS011;22123;52.412;20.970;2023-02-11T08:06:06;30.48;;;9.20;;
36061;SDS011;22123;52.412;20.970;2023-02-11T08:08:34;21.02;;;7.30;;
36061;SDS011;22123;52.412;20.970;2023-02-11T08:11:07;19.83;;;7.85;;
36061;SDS011;22123;52.412;20.970;2023-02-11T08:13:34;14.13;;;6.20;;
36061;SDS011;22123;52.412;20.970;2023-02-11T08:16:01;16.52;;;8.43;;
36061;SDS011;22123;52.412;20.970;2023-02-11T08:18:28;23.55;;;7.53;;
36061;SDS011;22123;52.412;20.970;2023-02-11T08:20:55;22.08;;;8.65;;
36061;SDS011;22123;52.412;20.970;2023-02-11T08:23:21;24.70;;;8.35;;
36061;SDS011;22123;52.412;20.970;2023-02-11T08:25:47;17.25;;;7.68;;
36061;SDS011;22123;52.412;20.970;2023-02-11T08:28:14;15.02;;;6.38;;
36061;SDS011;22123;52.412;20.970;2023-02-11T08:30:40;22.42;;;9.48;;
36061;SDS011;22123;52.412;20.970;2023-02-11T08:33:07;22.33;;;8.30;;
36061;SDS011;22123;52.412;20.970;2023-02-11T08:35:33;20.20;;;9.30;;
36061;SDS011;22123;52.412;20.970;2023-02-11T08:38:00;20.98;;;8.27;;
36061;SDS011;22123;52.412;20.970;2023-02-11T08:40:26;19.83;;;9.18;;
36061;SDS011;22123;52.412;20.970;2023-02-11T08:42:52;17.25;;;8.63;;
36061;SDS011;22123;52.412;20.970;2023-02-11T08:45:17;17.63;;;9.27;;
36061;SDS011;22123;52.412;20.970;2023-02-11T08:47:43;18.02;;;7.60;;
36061;SDS011;22123;52.412;20.970;2023-02-11T08:50:09;18.83;;;7.40;;
36061;SDS011;22123;52.412;20.970;2023-02-11T08:52:35;21.85;;;7.82;;
36061;SDS011;22123;52.412;20.970;2023-02-11T08:55:01;24.08;;;9.02;;
36061;SDS011;22123;52.412;20.970;2023-02-11T08:57:27;27.10;;;9.50;;
36061;SDS011;22123;52.412;20.970;2023-02-11T08:59:53;19.92;;;8.02;;
36061;SDS011;22123;52.412;20.970;2023-02-11T09:02:19;18.42;;;8.95;;
36061;SDS011;22123;52.412;20.970;2023-02-11T09:04:45;15.68;;;7.38;;
36061;SDS011;22123;52.412;20.970;2023-02-11T09:07:10;16.83;;;8.27;;
36061;SDS011;22123;52.412;20.970;2023-02-11T09:09:36;13.70;;;7.00;;
36061;SDS011;22123;52.412;20.970;2023-02-11T09:12:02;18.95;;;7.78;;
36061;SDS011;22123;52.412;20.970;2023-02-11T09:14:28;23.67;;;9.57;;
36061;SDS011;22123;52.412;20.970;2023-02-11T09:16:54;23.52;;;9.90;;
36061;SDS011;22123;52.412;20.970;2023-02-11T09:19:20;20.45;;;7.78;;
36061;SDS011;22123;52.412;20.970;2023-02-11T09:21:46;22.88;;;9.48;;
36061;SDS011;22123;52.412;20.970;2023-02-11T09:24:12;26.05;;;7.93;;
36061;SDS011;22123;52.412;20.970;2023-02-11T09:26:39;18.80;;;8.63;;
36061;SDS011;22123;52.412;20.970;2023-02-11T09:29:06;19.60;;;6.93;;
36061;SDS011;22123;52.412;20.970;2023-02-11T09:31:32;24.75;;;9.88;;
36061;SDS011;22123;52.412;20.970;2023-02-11T09:34:00;24.52;;;9.25;;
36061;SDS011;22123;52.412;20.970;2023-02-11T09:36:28;22.67;;;7.68;;
36061;SDS011;22123;52.412;20.970;2023-02-11T09:38:57;16.73;;;7.97;;
36061;SDS011;22123;52.412;20.970;2023-02-11T09:41:26;16.25;;;7.05;;
36061;SDS011;22123;52.412;20.970;2023-02-11T09:44:15;15.73;;;6.93;;
36061;SDS011;22123;52.412;20.970;2023-02-11T09:46:46;12.48;;;6.28;;
36061;SDS011;22123;52.412;20.970;2023-02-11T09:49:21;10.95;;;6.07;;
36061;SDS011;22123;52.412;20.970;2023-02-11T09:52:02;24.77;;;9.85;;
36061;SDS011;22123;52.412;20.970;2023-02-11T09:54:55;22.67;;;8.48;;
36061;SDS011;22123;52.412;20.970;2023-02-11T09:57:25;19.45;;;9.05;;
36061;SDS011;22123;52.412;20.970;2023-02-11T09:59:56;16.50;;;9.30;;
36061;SDS011;22123;52.412;20.970;2023-02-11T10:02:23;22.33;;;7.35;;
36061;SDS011;22123;52.412;20.970;2023-02-11T10:07:31;23.85;;;10.07;;
36061;SDS011;22123;52.412;20.970;2023-02-11T10:10:12;27.42;;;7.78;;
36061;SDS011;22123;52.412;20.970;2023-02-11T10:15:51;15.98;;;7.65;;
36061;SDS011;22123;52.412;20.970;2023-02-11T10:18:51;17.33;;;7.88;;
36061;SDS011;22123;52.412;20.970;2023-02-11T10:21:44;16.40;;;7.70;;
36061;SDS011;22123;52.412;20.970;2023-02-11T10:24:34;21.13;;;9.55;;
36061;SDS011;22123;52.412;20.970;2023-02-11T10:27:03;31.23;;;11.35;;
36061;SDS011;22123;52.412;20.970;2023-02-11T10:29:42;23.65;;;9.35;;
36061;SDS011;22123;52.412;20.970;2023-02-11T10:35:18;25.67;;;10.18;;
36061;SDS011;22123;52.412;20.970;2023-02-11T10:37:45;18.60;;;8.10;;
36061;SDS011;22123;52.412;20.970;2023-02-11T10:40:19;15.25;;;8.90;;
36061;SDS011;22123;52.412;20.970;2023-02-11T10:42:51;21.75;;;8.68;;
36061;SDS011;22123;52.412;20.970;2023-02-11T10:46:04;17.35;;;8.30;;
36061;SDS011;22123;52.412;20.970;2023-02-11T10:53:33;21.02;;;9.90;;
36061;SDS011;22123;52.412;20.970;2023-02-11T10:55:59;26.33;;;10.45;;
36061;SDS011;22123;52.412;20.970;2023-02-11T10:58:33;23.27;;;9.57;;
36061;SDS011;22123;52.412;20.970;2023-02-11T11:01:04;13.93;;;6.68;;
36061;SDS011;22123;52.412;20.970;2023-02-11T11:03:33;28.30;;;9.70;;
36061;SDS011;22123;52.412;20.970;2023-02-11T11:06:04;24.13;;;10.13;;
36061;SDS011;22123;52.412;20.970;2023-02-11T11:11:15;21.60;;;9.52;;
36061;SDS011;22123;52.412;20.970;2023-02-11T11:21:43;20.65;;;9.90;;
36061;SDS011;22123;52.412;20.970;2023-02-11T11:24:21;23.63;;;10.02;;
36061;SDS011;22123;52.412;20.970;2023-02-11T11:26:51;18.70;;;8.55;;
36061;SDS011;22123;52.412;20.970;2023-02-11T11:29:21;22.45;;;9.18;;
36061;SDS011;22123;52.412;20.970;2023-02-11T11:31:55;24.60;;;10.07;;
36061;SDS011;22123;52.412;20.970;2023-02-11T11:34:42;27.05;;;9.55;;
36061;SDS011;22123;52.412;20.970;2023-02-11T11:37:18;26.02;;;10.20;;
36061;SDS011;22123;52.412;20.970;2023-02-11T11:39:58;25.58;;;11.20;;
36061;SDS011;22123;52.412;20.970;2023-02-11T11:42:26;25.15;;;12.23;;
36061;SDS011;22123;52.412;20.970;2023-02-11T11:44:58;29.00;;;10.13;;
36061;SDS011;22123;52.412;20.970;2023-02-11T11:47:28;33.83;;;10.80;;
36061;SDS011;22123;52.412;20.970;2023-02-11T11:50:24;25.92;;;10.88;;
36061;SDS011;22123;52.412;20.970;2023-02-11T11:55:34;29.33;;;9.82;;
36061;SDS011;22123;52.412;20.970;2023-02-11T11:58:08;32.00;;;9.75;;
36061;SDS011;22123;52.412;20.970;2023-02-11T12:05:49;35.38;;;12.80;;
36061;SDS011;22123;52.412;20.970;2023-02-11T12:17:04;21.23;;;8.40;;
36061;SDS011;22123;52.412;20.970;2023-02-11T12:28:37;24.77;;;10.38;;
36061;SDS011;22123;52.412;20.970;2023-02-11T12:31:19;16.42;;;7.20;;
36061;SDS011;22123;52.412;20.970;2023-02-11T12:44:24;26.08;;;11.52;;
36061;SDS011;22123;52.412;20.970;2023-02-11T12:55:59;17.50;;;8.85;;
36061;SDS011;22123;52.412;20.970;2023-02-11T12:58:47;17.23;;;7.22;;
36061;SDS011;22123;52.412;20.970;2023-02-11T13:01:19;20.30;;;8.88;;
36061;SDS011;22123;52.412;20.970;2023-02-11T13:03:53;16.80;;;8.40;;
36061;SDS011;22123;52.412;20.970;2023-02-11T13:06:24;38.17;;;10.82;;
36061;SDS011;22123;52.412;20.970;2023-02-11T13:09:00;19.20;;;9.82;;
36061;SDS011;22123;52.412;20.970;2023-02-11T13:11:39;21.55;;;9.40;;
36061;SDS011;22123;52.412;20.970;2023-02-11T13:14:14;16.17;;;7.57;;
36061;SDS011;22123;52.412;20.970;2023-02-11T13:16:48;25.55;;;9.50;;
36061;SDS011;22123;52.412;20.970;2023-02-11T13:19:34;32.50;;;10.70;;
36061;SDS011;22123;52.412;20.970;2023-02-11T13:22:12;21.10;;;10.45;;
36061;SDS011;22123;52.412;20.970;2023-02-11T13:27:34;24.73;;;8.27;;
36061;SDS011;22123;52.412;20.970;2023-02-11T13:33:02;18.75;;;9.80;;
36061;SDS011;22123;52.412;20.970;2023-02-11T13:35:34;28.48;;;11.70;;
36061;SDS011;22123;52.412;20.970;2023-02-11T13:38:16;26.42;;;8.80;;
36061;SDS011;22123;52.412;20.970;2023-02-11T13:43:40;38.33;;;12.52;;
36061;SDS011;22123;52.412;20.970;2023-02-11T13:46:10;23.45;;;11.05;;
36061;SDS011;22123;52.412;20.970;2023-02-11T13:51:15;27.83;;;11.45;;
36061;SDS011;22123;52.412;20.970;2023-02-11T13:56:22;19.02;;;8.40;;
36061;SDS011;22123;52.412;20.970;2023-02-11T13:59:00;20.70;;;9.13;;
36061;SDS011;22123;52.412;20.970;2023-02-11T14:04:23;18.42;;;7.68;;
36061;SDS011;22123;52.412;20.970;2023-02-11T14:07:37;22.35;;;8.73;;
36061;SDS011;22123;52.412;20.970;2023-02-11T14:09:50;23.75;;;8.43;;
36061;SDS011;22123;52.412;20.970;2023-02-11T14:12:32;20.67;;;8.95;;
36061;SDS011;22123;52.412;20.970;2023-02-11T14:15:00;29.60;;;12.18;;
36061;SDS011;22123;52.412;20.970;2023-02-11T14:17:35;22.58;;;9.85;;
36061;SDS011;22123;52.412;20.970;2023-02-11T14:20:03;25.08;;;9.85;;
36061;SDS011;22123;52.412;20.970;2023-02-11T14:22:49;25.20;;;10.65;;
36061;SDS011;22123;52.412;20.970;2023-02-11T14:25:26;21.20;;;10.27;;
36061;SDS011;22123;52.412;20.970;2023-02-11T14:27:54;21.70;;;8.95;;
36061;SDS011;22123;52.412;20.970;2023-02-11T14:38:25;25.65;;;12.85;;
36061;SDS011;22123;52.412;20.970;2023-02-11T14:41:37;19.05;;;8.90;;
36061;SDS011;22123;52.412;20.970;2023-02-11T14:44:05;21.90;;;8.88;;
36061;SDS011;22123;52.412;20.970;2023-02-11T14:46:45;18.90;;;7.95;;
36061;SDS011;22123;52.412;20.970;2023-02-11T14:49:16;22.17;;;8.00;;
36061;SDS011;22123;52.412;20.970;2023-02-11T14:51:47;19.45;;;8.85;;
36061;SDS011;22123;52.412;20.970;2023-02-11T14:54:17;23.67;;;8.73;;
36061;SDS011;22123;52.412;20.970;2023-02-11T14:56:47;26.27;;;10.45;;
36061;SDS011;22123;52.412;20.970;2023-02-11T14:59:36;19.35;;;7.95;;
36061;SDS011;22123;52.412;20.970;2023-02-11T15:02:02;16.80;;;7.30;;
36061;SDS011;22123;52.412;20.970;2023-02-11T15:04:31;20.00;;;7.97;;
36061;SDS011;22123;52.412;20.970;2023-02-11T15:07:02;19.58;;;8.50;;
36061;SDS011;22123;52.412;20.970;2023-02-11T15:09:40;17.52;;;7.05;;
36061;SDS011;22123;52.412;20.970;2023-02-11T15:12:16;19.98;;;8.20;;
36061;SDS011;22123;52.412;20.970;2023-02-11T15:14:45;13.18;;;6.35;;
36061;SDS011;22123;52.412;20.970;2023-02-11T15:17:13;21.05;;;7.85;;
36061;SDS011;22123;52.412;20.970;2023-02-11T15:19:44;14.65;;;7.35;;
36061;SDS011;22123;52.412;20.970;2023-02-11T15:22:17;18.75;;;7.20;;
36061;SDS011;22123;52.412;20.970;2023-02-11T15:27:38;16.70;;;5.85;;
36061;SDS011;22123;52.412;20.970;2023-02-11T15:32:46;14.82;;;6.88;;
36061;SDS011;22123;52.412;20.970;2023-02-11T15:35:17;15.63;;;7.22;;
36061;SDS011;22123;52.412;20.970;2023-02-11T15:37:43;22.88;;;8.27;;
36061;SDS011;22123;52.412;20.970;2023-02-11T15:40:11;23.45;;;7.90;;
36061;SDS011;22123;52.412;20.970;2023-02-11T15:42:51;16.40;;;7.30;;
36061;SDS011;22123;52.412;20.970;2023-02-11T15:45:23;16.63;;;6.82;;
36061;SDS011;22123;52.412;20.970;2023-02-11T15:47:55;16.90;;;6.90;;
36061;SDS011;22123;52.412;20.970;2023-02-11T15:50:42;22.67;;;7.82;;
36061;SDS011;22123;52.412;20.970;2023-02-11T15:56:07;18.45;;;7.63;;
36061;SDS011;22123;52.412;20.970;2023-02-11T15:58:45;11.20;;;5.22;;
36061;SDS011;22123;52.412;20.970;2023-02-11T16:01:13;17.80;;;6.40;;
36061;SDS011;22123;52.412;20.970;2023-02-11T16:03:40;15.52;;;6.85;;
36061;SDS011;22123;52.412;20.970;2023-02-11T16:06:13;18.10;;;6.70;;
36061;SDS011;22123;52.412;20.970;2023-02-11T16:08:40;17.50;;;7.15;;
36061;SDS011;22123;52.412;20.970;2023-02-11T16:11:17;10.05;;;5.68;;
36061;SDS011;22123;52.412;20.970;2023-02-11T16:13:49;12.50;;;5.43;;
36061;SDS011;22123;52.412;20.970;2023-02-11T16:16:18;14.98;;;6.57;;
36061;SDS011;22123;52.412;20.970;2023-02-11T16:18:49;12.88;;;6.82;;
36061;SDS011;22123;52.412;20.970;2023-02-11T16:21:17;16.27;;;7.15;;
36061;SDS011;22123;52.412;20.970;2023-02-11T16:23:52;9.90;;;4.55;;
36061;SDS011;22123;52.412;20.970;2023-02-11T16:26:33;13.10;;;6.07;;
36061;SDS011;22123;52.412;20.970;2023-02-11T16:29:14;11.15;;;5.65;;
36061;SDS011;22123;52.412;20.970;2023-02-11T16:31:43;13.40;;;5.27;;
36061;SDS011;22123;52.412;20.970;2023-02-11T16:34:18;15.65;;;6.30;;
36061;SDS011;22123;52.412;20.970;2023-02-11T16:36:48;14.95;;;5.30;;
36061;SDS011;22123;52.412;20.970;2023-02-11T16:39:15;19.92;;;6.90;;
36061;SDS011;22123;52.412;20.970;2023-02-11T16:41:42;14.77;;;5.80;;
36061;SDS011;22123;52.412;20.970;2023-02-11T16:44:08;14.93;;;6.30;;
36061;SDS011;22123;52.412;20.970;2023-02-11T16:46:34;11.98;;;6.57;;
36061;SDS011;22123;52.412;20.970;2023-02-11T16:49:21;10.65;;;4.60;;
36061;SDS011;22123;52.412;20.970;2023-02-11T16:51:51;9.10;;;4.88;;
36061;SDS011;22123;52.412;20.970;2023-02-11T16:54:19;11.88;;;5.20;;
36061;SDS011;22123;52.412;20.970;2023-02-11T16:56:45;14.90;;;6.80;;
36061;SDS011;22123;52.412;20.970;2023-02-11T16:59:11;11.82;;;5.50;;
36061;SDS011;22123;52.412;20.970;2023-02-11T17:01:37;19.35;;;7.35;;
36061;SDS011;22123;52.412;20.970;2023-02-11T17:04:05;15.23;;;7.22;;